createdAt,value
2023-08-09T00:00:09.146Z,16.20
2023-08-09T00:02:36.299Z,16.20
2023-08-09T00:05:03.468Z,16.20
2023-08-09T00:07:30.470Z,16.20
2023-08-09T00:09:57.707Z,16.20
2023-08-09T00:12:24.571Z,16.20
2023-08-09T00:14:51.767Z,16.20
2023-08-09T00:17:18.592Z,16.20
2023-08-09T00:19:45.372Z,16.20
2023-08-09T00:22:12.080Z,16.20
2023-08-09T00:24:38.919Z,16.20
2023-08-09T00:27:06.565Z,16.20
2023-08-09T00:29:33.454Z,16.20
2023-08-09T00:32:00.282Z,16.20
2023-08-09T00:34:27.050Z,16.20
2023-08-09T00:36:54.361Z,16.10
2023-08-09T00:39:21.129Z,16.10
2023-08-09T00:41:47.877Z,16.10
2023-08-09T00:44:14.732Z,16.10
2023-08-09T00:46:41.542Z,16.10
2023-08-09T00:49:08.372Z,16.00
2023-08-09T00:51:35.764Z,16.00
2023-08-09T00:54:02.737Z,16.00
2023-08-09T00:56:30.112Z,15.90
2023-08-09T00:58:56.881Z,15.90
2023-08-09T01:01:23.723Z,15.90
2023-08-09T01:03:50.760Z,15.80
2023-08-09T01:06:53.013Z,15.80
2023-08-09T01:09:43.160Z,15.80
2023-08-09T01:12:15.983Z,15.80
2023-08-09T01:14:44.945Z,15.70
2023-08-09T01:17:14.952Z,15.70
2023-08-09T01:19:46.267Z,15.60
2023-08-09T01:22:18.018Z,15.60
2023-08-09T01:24:45.801Z,15.60
2023-08-09T01:27:13.226Z,15.50
2023-08-09T01:29:40.406Z,15.50
2023-08-09T01:32:07.505Z,15.50
2023-08-09T01:34:37.037Z,15.50
2023-08-09T01:37:15.354Z,15.50
2023-08-09T01:39:43.471Z,15.50
2023-08-09T01:42:12.480Z,15.40
2023-08-09T01:44:39.889Z,15.40
2023-08-09T01:47:06.811Z,15.40
2023-08-09T01:49:33.640Z,15.40
2023-08-09T01:52:00.436Z,15.40
2023-08-09T01:54:27.277Z,15.40
2023-08-09T01:56:53.987Z,15.30
2023-08-09T01:59:20.761Z,15.30
2023-08-09T02:01:47.536Z,15.30
2023-08-09T02:04:14.258Z,15.30
2023-08-09T02:06:41.076Z,15.30
2023-08-09T02:09:08.097Z,15.30
2023-08-09T02:11:34.923Z,15.30
2023-08-09T02:14:01.717Z,15.30
2023-08-09T02:16:28.740Z,15.30
2023-08-09T02:18:55.716Z,15.20
2023-08-09T02:21:22.699Z,15.30
2023-08-09T02:23:49.997Z,15.30
2023-08-09T02:26:16.826Z,15.30
2023-08-09T02:28:43.575Z,15.30
2023-08-09T02:31:12.191Z,15.20
2023-08-09T02:33:39.152Z,15.20
2023-08-09T02:36:06.568Z,15.20
2023-08-09T02:38:33.602Z,15.20
2023-08-09T02:41:05.487Z,15.20
2023-08-09T02:43:32.340Z,15.20
2023-08-09T02:45:59.111Z,15.20
2023-08-09T02:48:26.245Z,15.20
2023-08-09T02:50:52.944Z,15.20
2023-08-09T02:53:19.937Z,15.20
2023-08-09T02:55:46.682Z,15.20
2023-08-09T02:58:14.159Z,15.20
2023-08-09T03:00:40.935Z,15.20
2023-08-09T03:03:07.910Z,15.20
2023-08-09T03:05:35.737Z,15.20
2023-08-09T03:08:02.539Z,15.20
2023-08-09T03:10:30.375Z,15.10
2023-08-09T03:12:57.175Z,15.20
2023-08-09T03:15:24.801Z,15.10
2023-08-09T03:17:51.715Z,15.10
2023-08-09T03:20:18.749Z,15.20
2023-08-09T03:22:46.372Z,15.20
2023-08-09T03:25:14.174Z,15.20
2023-08-09T03:27:41.677Z,15.20
2023-08-09T03:30:09.858Z,15.20
2023-08-09T03:32:37.622Z,15.20
2023-08-09T03:35:06.332Z,15.20
2023-08-09T03:37:33.284Z,15.20
2023-08-09T03:40:00.194Z,15.20
2023-08-09T03:42:27.325Z,15.20
2023-08-09T03:44:55.043Z,15.30
2023-08-09T03:47:21.812Z,15.20
2023-08-09T03:49:48.565Z,15.20
2023-08-09T03:52:15.744Z,15.30
2023-08-09T03:54:42.585Z,15.30
2023-08-09T03:57:09.399Z,15.20
2023-08-09T03:59:37.567Z,15.20
2023-08-09T04:02:04.536Z,15.20
2023-08-09T04:04:31.381Z,15.20
2023-08-09T04:06:58.152Z,15.20
2023-08-09T04:09:24.902Z,15.30
2023-08-09T04:11:51.624Z,15.20
2023-08-09T04:14:18.780Z,15.20
2023-08-09T04:16:45.553Z,15.20
2023-08-09T04:19:12.840Z,15.20
2023-08-09T04:21:39.622Z,15.20
2023-08-09T04:24:07.070Z,15.20
2023-08-09T04:26:33.817Z,15.20
2023-08-09T04:29:00.539Z,15.20
2023-08-09T04:31:27.756Z,15.20
2023-08-09T04:33:54.777Z,15.20
2023-08-09T04:36:21.749Z,15.20
2023-08-09T04:38:48.516Z,15.20
2023-08-09T04:41:15.306Z,15.20
2023-08-09T04:43:44.318Z,15.20
2023-08-09T04:46:12.329Z,15.20
2023-08-09T04:48:40.231Z,15.30
2023-08-09T04:51:08.337Z,15.30
2023-08-09T04:53:35.607Z,15.30
2023-08-09T04:56:04.420Z,15.30
2023-08-09T04:58:31.968Z,15.30
2023-08-09T05:00:59.065Z,15.30
2023-08-09T05:03:25.812Z,15.30
2023-08-09T05:05:52.626Z,15.30
2023-08-09T05:08:19.391Z,15.40
2023-08-09T05:10:46.214Z,15.40
2023-08-09T05:13:12.937Z,15.40
2023-08-09T05:15:40.169Z,15.40
2023-08-09T05:18:06.978Z,15.40
2023-08-09T05:20:34.558Z,15.50
2023-08-09T05:23:01.351Z,15.50
2023-08-09T05:25:28.353Z,15.50
2023-08-09T05:27:55.073Z,15.50
2023-08-09T05:30:22.074Z,15.50
2023-08-09T05:32:49.294Z,15.60
2023-08-09T05:35:16.237Z,15.60
2023-08-09T05:37:43.020Z,15.60
2023-08-09T05:40:11.214Z,15.60
2023-08-09T05:42:37.998Z,15.60
2023-08-09T05:45:05.377Z,15.70
2023-08-09T05:47:32.275Z,15.70
2023-08-09T05:49:59.454Z,15.70
2023-08-09T05:52:26.328Z,15.70
2023-08-09T05:54:53.714Z,15.70
2023-08-09T05:57:20.462Z,15.70
2023-08-09T05:59:47.392Z,15.80
2023-08-09T06:02:14.328Z,15.80
2023-08-09T06:04:41.149Z,15.80
2023-08-09T06:07:08.264Z,15.80
2023-08-09T06:12:19.606Z,15.90
2023-08-09T06:14:46.668Z,15.90
2023-08-09T06:17:13.460Z,15.90
2023-08-09T06:19:40.244Z,15.90
2023-08-09T06:22:07.057Z,15.90
2023-08-09T06:24:33.907Z,16.00
2023-08-09T06:27:01.107Z,16.00
2023-08-09T06:29:28.150Z,16.00
2023-08-09T06:31:54.985Z,16.10
2023-08-09T06:34:21.858Z,16.00
2023-08-09T06:36:48.641Z,16.10
2023-08-09T06:39:15.408Z,16.10
2023-08-09T06:41:42.182Z,16.20
2023-08-09T06:44:08.959Z,16.20
2023-08-09T06:46:35.816Z,16.20
2023-08-09T06:49:02.616Z,16.30
2023-08-09T06:51:29.585Z,16.30
2023-08-09T06:53:56.353Z,16.30
2023-08-09T06:56:23.170Z,16.40
2023-08-09T06:58:50.002Z,16.50
2023-08-09T07:01:17.099Z,16.50
2023-08-09T07:03:44.888Z,16.50
2023-08-09T07:06:11.734Z,16.60
2023-08-09T07:08:38.741Z,16.60
2023-08-09T07:11:05.630Z,16.70
2023-08-09T07:13:34.543Z,16.70
2023-08-09T07:16:02.896Z,16.80
2023-08-09T07:18:29.747Z,16.80
2023-08-09T07:20:56.607Z,16.90
2023-08-09T07:23:36.004Z,16.90
2023-08-09T07:26:10.135Z,17.00
2023-08-09T07:28:36.864Z,17.10
2023-08-09T07:31:03.635Z,17.10
2023-08-09T07:33:30.409Z,17.20
2023-08-09T07:35:57.151Z,17.20
2023-08-09T07:38:23.918Z,17.30
2023-08-09T07:40:50.662Z,17.40
2023-08-09T07:43:17.409Z,17.50
2023-08-09T07:45:49.752Z,17.60
2023-08-09T07:48:16.615Z,17.70
2023-08-09T07:50:43.428Z,17.80
2023-08-09T07:53:10.264Z,17.80
2023-08-09T07:55:36.988Z,17.90
2023-08-09T07:58:04.036Z,18.00
2023-08-09T08:03:17.798Z,18.10
2023-08-09T08:05:46.592Z,18.20
2023-08-09T08:08:15.969Z,18.30
2023-08-09T08:10:43.333Z,18.30
2023-08-09T08:13:10.462Z,18.40
2023-08-09T08:15:40.508Z,18.40
2023-08-09T08:18:08.255Z,18.50
2023-08-09T08:20:35.284Z,18.50
2023-08-09T08:23:02.194Z,18.60
2023-08-09T08:25:29.130Z,18.70
2023-08-09T08:27:56.222Z,18.70
2023-08-09T08:30:23.032Z,18.70
2023-08-09T08:32:50.931Z,18.80
2023-08-09T08:35:21.845Z,18.80
2023-08-09T08:37:50.396Z,18.90
2023-08-09T08:40:22.405Z,18.90
2023-08-09T08:42:50.168Z,18.90
2023-08-09T08:45:17.909Z,18.90
2023-08-09T08:47:46.720Z,18.90
2023-08-09T08:50:15.815Z,18.90
2023-08-09T08:52:48.129Z,19.00
2023-08-09T08:55:15.865Z,19.00
2023-08-09T08:57:44.148Z,19.00
2023-08-09T09:00:21.348Z,19.00
2023-08-09T09:02:54.232Z,19.00
2023-08-09T09:05:21.266Z,19.00
2023-08-09T09:07:57.931Z,19.00
2023-08-09T09:10:26.437Z,19.00
2023-08-09T09:12:57.481Z,19.00
2023-08-09T09:15:25.452Z,19.10
2023-08-09T09:17:52.722Z,19.10
2023-08-09T09:20:34.882Z,19.10
2023-08-09T09:23:02.104Z,19.20
2023-08-09T09:25:29.079Z,19.20
2023-08-09T09:27:57.577Z,19.30
2023-08-09T09:30:26.339Z,19.30
2023-08-09T09:32:53.518Z,19.40
2023-08-09T09:35:21.837Z,19.40
2023-08-09T09:37:49.515Z,19.40
2023-08-09T09:40:37.238Z,19.40
2023-08-09T09:43:05.732Z,19.50
2023-08-09T09:45:34.204Z,19.60
2023-08-09T09:48:03.306Z,19.60
2023-08-09T09:50:32.797Z,19.70
2023-08-09T09:53:00.570Z,19.70
2023-08-09T09:55:28.220Z,19.80
2023-08-09T09:57:56.097Z,19.80
2023-08-09T10:00:23.304Z,19.90
2023-08-09T10:02:51.697Z,19.90
2023-08-09T10:05:40.117Z,19.90
2023-08-09T10:08:14.129Z,20.00
2023-08-09T10:10:45.270Z,20.00
2023-08-09T10:13:17.772Z,20.10
2023-08-09T10:15:49.114Z,20.20
2023-08-09T10:18:32.881Z,20.30
2023-08-09T10:21:01.681Z,20.30
2023-08-09T10:23:31.501Z,20.40
2023-08-09T10:25:59.621Z,20.40
2023-08-09T10:28:48.454Z,20.40
2023-08-09T10:31:17.553Z,20.30
2023-08-09T10:34:09.958Z,20.30
2023-08-09T10:36:36.989Z,20.30
2023-08-09T10:39:13.060Z,20.30
2023-08-09T10:41:55.078Z,20.30
2023-08-09T10:44:35.159Z,20.40
2023-08-09T10:47:04.523Z,20.40
2023-08-09T10:50:00.237Z,20.50
2023-08-09T10:52:33.039Z,20.60
2023-08-09T10:55:23.836Z,20.70
2023-08-09T10:57:51.905Z,20.80
2023-08-09T11:00:20.784Z,20.80
2023-08-09T11:02:52.141Z,20.80
2023-08-09T11:05:20.171Z,20.90
2023-08-09T11:07:48.561Z,20.90
2023-08-09T11:10:17.343Z,20.90
2023-08-09T11:12:45.558Z,21.00
2023-08-09T11:15:13.144Z,21.00
2023-08-09T11:17:50.620Z,21.10
2023-08-09T11:20:18.293Z,21.10
2023-08-09T11:22:55.641Z,21.20
2023-08-09T11:25:24.529Z,21.30
2023-08-09T11:27:55.836Z,21.40
2023-08-09T11:30:23.512Z,21.50
2023-08-09T11:33:05.348Z,21.50
2023-08-09T11:35:33.693Z,21.50
2023-08-09T11:38:00.754Z,21.60
2023-08-09T11:40:28.042Z,21.70
2023-08-09T11:42:59.259Z,21.80
2023-08-09T11:45:26.364Z,21.80
2023-08-09T11:47:54.440Z,21.90
2023-08-09T11:50:25.365Z,21.90
2023-08-09T11:52:54.073Z,21.90
2023-08-09T11:55:22.190Z,21.90
2023-08-09T11:57:49.288Z,22.00
2023-08-09T12:00:17.538Z,22.00
2023-08-09T12:02:45.427Z,22.00
2023-08-09T12:05:15.458Z,22.10
2023-08-09T12:07:43.413Z,22.10
2023-08-09T12:10:11.882Z,22.20
2023-08-09T12:12:40.125Z,22.20
2023-08-09T12:15:09.121Z,22.30
2023-08-09T12:17:35.961Z,22.30
2023-08-09T12:20:07.907Z,22.40
2023-08-09T12:22:34.981Z,22.40
2023-08-09T12:25:02.268Z,22.50
2023-08-09T12:27:29.161Z,22.50
2023-08-09T12:29:56.250Z,22.50
2023-08-09T12:32:23.312Z,22.60
2023-08-09T12:34:51.203Z,22.60
2023-08-09T12:37:18.651Z,22.60
2023-08-09T12:39:45.467Z,22.60
2023-08-09T12:42:12.283Z,22.70
2023-08-09T12:44:39.446Z,22.70
2023-08-09T12:47:08.883Z,22.80
2023-08-09T12:49:36.983Z,22.80
2023-08-09T12:52:04.222Z,22.80
2023-08-09T12:54:31.297Z,22.90
2023-08-09T12:56:58.249Z,23.00
2023-08-09T12:59:25.147Z,23.00
2023-08-09T13:01:52.008Z,23.10
2023-08-09T13:04:20.900Z,23.10
2023-08-09T13:06:47.721Z,23.10
2023-08-09T13:09:14.499Z,23.10
2023-08-09T13:11:41.644Z,23.10
2023-08-09T13:14:08.485Z,23.10
2023-08-09T13:16:35.387Z,23.10
2023-08-09T13:19:02.358Z,23.00
2023-08-09T13:21:29.285Z,23.00
2023-08-09T13:23:56.112Z,23.00
2023-08-09T13:26:24.638Z,22.90
2023-08-09T13:28:52.035Z,22.90
2023-08-09T13:31:19.069Z,22.80
2023-08-09T13:33:45.877Z,22.80
2023-08-09T13:36:12.711Z,22.80
2023-08-09T13:38:41.696Z,22.90
2023-08-09T13:41:10.295Z,23.10
2023-08-09T13:43:37.520Z,23.30
2023-08-09T13:46:06.495Z,23.40
2023-08-09T13:48:35.155Z,23.60
2023-08-09T13:51:02.238Z,23.80
2023-08-09T13:53:29.008Z,24.10
2023-08-09T13:55:56.065Z,24.30
2023-08-09T13:58:22.866Z,24.40
2023-08-09T14:00:50.780Z,24.60
2023-08-09T14:03:18.251Z,24.70
2023-08-09T14:05:45.272Z,24.90
2023-08-09T14:08:12.078Z,25.00
2023-08-09T14:10:42.159Z,25.10
2023-08-09T14:13:09.427Z,25.20
2023-08-09T14:15:36.778Z,25.20
2023-08-09T14:18:07.089Z,25.20
2023-08-09T14:20:36.028Z,25.20
2023-08-09T14:23:03.332Z,25.10
2023-08-09T14:25:30.362Z,25.00
2023-08-09T14:27:57.117Z,24.90
2023-08-09T14:30:24.013Z,24.80
2023-08-09T14:32:50.875Z,24.60
2023-08-09T14:35:17.744Z,24.40
2023-08-09T14:37:44.617Z,24.20
2023-08-09T14:40:11.725Z,23.90
2023-08-09T14:42:40.334Z,23.70
2023-08-09T14:45:09.380Z,23.60
2023-08-09T14:47:36.865Z,23.50
2023-08-09T14:50:04.377Z,23.30
2023-08-09T14:52:31.496Z,23.20
2023-08-09T14:54:58.499Z,23.10
2023-08-09T14:57:25.945Z,23.00
2023-08-09T14:59:52.892Z,22.90
2023-08-09T15:02:19.819Z,22.80
2023-08-09T15:04:47.152Z,22.70
2023-08-09T15:07:16.717Z,22.60
2023-08-09T15:09:44.030Z,22.50
2023-08-09T15:12:11.263Z,22.40
2023-08-09T15:14:37.998Z,22.40
2023-08-09T15:19:37.795Z,22.20
2023-08-09T15:22:04.819Z,22.10
2023-08-09T15:24:32.005Z,22.10
2023-08-09T15:26:59.778Z,22.00
2023-08-09T15:29:26.728Z,22.00
2023-08-09T15:31:53.754Z,21.90
2023-08-09T15:34:20.588Z,21.90
2023-08-09T15:36:47.507Z,21.90
2023-08-09T15:39:15.103Z,21.90
2023-08-09T15:41:43.413Z,21.80
2023-08-09T15:44:13.023Z,21.80
2023-08-09T15:46:40.571Z,21.70
2023-08-09T15:49:07.762Z,21.70
2023-08-09T15:51:34.567Z,21.60
2023-08-09T15:54:01.916Z,21.50
2023-08-09T15:56:29.125Z,21.50
2023-08-09T15:58:55.958Z,21.40
2023-08-09T16:01:22.965Z,21.30
2023-08-09T16:03:49.865Z,21.30
2023-08-09T16:06:16.801Z,21.30
2023-08-09T16:08:44.606Z,21.30
2023-08-09T16:11:11.511Z,21.30
2023-08-09T16:13:38.354Z,21.30
2023-08-09T16:16:06.229Z,21.20
2023-08-09T16:18:35.109Z,21.20
2023-08-09T16:21:01.953Z,21.20
2023-08-09T16:23:28.819Z,21.20
2023-08-09T16:25:55.628Z,21.20
2023-08-09T16:28:22.991Z,21.20
2023-08-09T16:30:49.808Z,21.20
2023-08-09T16:33:16.920Z,21.20
2023-08-09T16:35:43.737Z,21.30
2023-08-09T16:38:10.468Z,21.30
2023-08-09T16:40:38.208Z,21.30
2023-08-09T16:43:06.119Z,21.20
2023-08-09T16:45:32.974Z,21.20
2023-08-09T16:47:59.886Z,21.20
2023-08-09T16:50:26.648Z,21.20
2023-08-09T16:52:53.762Z,21.10
2023-08-09T16:55:22.782Z,21.10
2023-08-09T16:57:51.776Z,21.10
2023-08-09T17:00:19.772Z,21.10
2023-08-09T17:02:46.851Z,21.00
2023-08-09T17:05:15.759Z,21.00
2023-08-09T17:07:43.725Z,20.90
2023-08-09T17:10:10.850Z,20.80
2023-08-09T17:12:38.478Z,20.80
2023-08-09T17:15:06.278Z,20.70
2023-08-09T17:17:34.865Z,20.70
2023-08-09T17:20:07.695Z,20.70
2023-08-09T17:22:34.604Z,20.60
2023-08-09T17:25:01.417Z,20.60
2023-08-09T17:27:28.503Z,20.60
2023-08-09T17:29:55.281Z,20.60
2023-08-09T17:32:22.798Z,20.50
2023-08-09T17:34:49.561Z,20.50
2023-08-09T17:37:16.708Z,20.40
2023-08-09T17:39:44.064Z,20.40
2023-08-09T17:42:11.206Z,20.40
2023-08-09T17:44:37.987Z,20.40
2023-08-09T17:47:05.065Z,20.30
2023-08-09T17:49:32.160Z,20.30
2023-08-09T17:51:58.983Z,20.30
2023-08-09T17:54:25.757Z,20.30
2023-08-09T17:56:52.606Z,20.20
2023-08-09T17:59:19.436Z,20.20
2023-08-09T18:01:46.253Z,20.20
2023-08-09T18:04:15.093Z,20.20
2023-08-09T18:06:42.175Z,20.20
2023-08-09T18:09:12.093Z,20.10
2023-08-09T18:11:44.266Z,20.10
2023-08-09T18:14:11.297Z,20.10
2023-08-09T18:16:38.729Z,20.10
2023-08-09T18:19:05.653Z,20.10
2023-08-09T18:21:33.308Z,20.10
2023-08-09T18:24:00.317Z,20.00
2023-08-09T18:26:27.506Z,20.00
2023-08-09T18:28:55.082Z,19.90
2023-08-09T18:31:21.999Z,19.90
2023-08-09T18:33:49.314Z,19.90
2023-08-09T18:36:16.417Z,19.80
2023-08-09T18:38:43.190Z,19.80
2023-08-09T18:41:10.032Z,19.70
2023-08-09T18:43:36.946Z,19.70
2023-08-09T18:46:06.399Z,19.60
2023-08-09T18:48:33.327Z,19.60
2023-08-09T18:51:00.229Z,19.60
2023-08-09T18:53:27.071Z,19.50
2023-08-09T18:55:53.923Z,19.40
2023-08-09T18:58:23.325Z,19.40
2023-08-09T19:00:51.733Z,19.30
2023-08-09T19:03:18.760Z,19.30
2023-08-09T19:05:45.868Z,19.20
2023-08-09T19:08:13.257Z,19.20
2023-08-09T19:10:40.209Z,19.10
2023-08-09T19:13:07.015Z,19.10
2023-08-09T19:15:34.691Z,19.00
2023-08-09T19:18:03.167Z,19.00
2023-08-09T19:20:30.050Z,18.90
2023-08-09T19:22:59.195Z,18.90
2023-08-09T19:25:25.989Z,18.80
2023-08-09T19:27:54.104Z,18.80
2023-08-09T19:30:21.032Z,18.70
2023-08-09T19:32:47.836Z,18.70
2023-08-09T19:35:17.236Z,18.60
2023-08-09T19:37:44.577Z,18.60
2023-08-09T19:40:12.136Z,18.60
2023-08-09T19:42:41.897Z,18.60
2023-08-09T19:45:10.188Z,18.50
2023-08-09T19:47:37.077Z,18.50
2023-08-09T19:50:05.388Z,18.40
2023-08-09T19:52:32.274Z,18.40
2023-08-09T19:54:59.184Z,18.40
2023-08-09T19:57:26.080Z,18.30
2023-08-09T19:59:52.856Z,18.30
2023-08-09T20:02:19.729Z,18.30
2023-08-09T20:04:47.025Z,18.20
2023-08-09T20:07:14.759Z,18.20
2023-08-09T20:09:41.673Z,18.20
2023-08-09T20:12:09.118Z,18.20
2023-08-09T20:14:35.884Z,18.10
2023-08-09T20:17:03.273Z,18.10
2023-08-09T20:19:31.952Z,18.10
2023-08-09T20:21:58.730Z,18.00
2023-08-09T20:24:44.878Z,17.90
2023-08-09T20:27:12.633Z,17.90
2023-08-09T20:29:39.516Z,17.80
2023-08-09T20:32:09.857Z,17.80
2023-08-09T20:34:36.788Z,17.70
2023-08-09T20:37:04.670Z,17.60
2023-08-09T20:39:33.027Z,17.50
2023-08-09T20:42:00.618Z,17.50
2023-08-09T20:44:27.505Z,17.40
2023-08-09T20:46:54.330Z,17.30
2023-08-09T20:49:21.191Z,17.30
2023-08-09T20:51:47.933Z,17.20
2023-08-09T20:54:14.896Z,17.10
2023-08-09T20:56:41.812Z,17.10
2023-08-09T20:59:08.605Z,17.00
2023-08-09T21:01:35.468Z,17.00
2023-08-09T21:04:02.204Z,16.90
2023-08-09T21:06:29.056Z,16.90
2023-08-09T21:08:56.296Z,16.80
2023-08-09T21:11:23.100Z,16.80
2023-08-09T21:13:49.840Z,16.80
2023-08-09T21:16:16.750Z,16.70
2023-08-09T21:18:47.568Z,16.70
2023-08-09T21:21:14.925Z,16.60
2023-08-09T21:26:11.890Z,16.50
2023-08-09T21:28:46.683Z,16.50
2023-08-09T21:31:14.490Z,16.50
2023-08-09T21:33:41.254Z,16.40
2023-08-09T21:36:09.240Z,16.40
2023-08-09T21:38:36.474Z,16.40
2023-08-09T21:41:03.432Z,16.40
2023-08-09T21:43:30.458Z,16.30
2023-08-09T21:45:57.385Z,16.30
2023-08-09T21:48:24.453Z,16.30
2023-08-09T21:50:52.973Z,16.20
2023-08-09T21:53:22.623Z,16.20
2023-08-09T21:55:49.391Z,16.20
2023-08-09T21:58:16.500Z,16.10
2023-08-09T22:00:43.704Z,16.20
2023-08-09T22:03:10.619Z,16.10
2023-08-09T22:05:37.570Z,16.10
2023-08-09T22:08:05.361Z,16.00
2023-08-09T22:10:32.888Z,16.00
2023-08-09T22:13:00.082Z,16.00
2023-08-09T22:15:27.286Z,15.90
2023-08-09T22:17:54.429Z,15.90
2023-08-09T22:20:21.308Z,15.80
2023-08-09T22:22:48.971Z,15.80
2023-08-09T22:25:16.169Z,15.80
2023-08-09T22:27:43.102Z,15.70
2023-08-09T22:30:11.379Z,15.70
2023-08-09T22:32:39.393Z,15.70
2023-08-09T22:35:07.168Z,15.60
2023-08-09T22:37:35.182Z,15.60
2023-08-09T22:40:04.814Z,15.60
2023-08-09T22:42:31.625Z,15.50
2023-08-09T22:44:58.419Z,15.60
2023-08-09T22:47:25.267Z,15.60
2023-08-09T22:49:54.233Z,15.50
2023-08-09T22:52:21.361Z,15.50
2023-08-09T22:54:48.253Z,15.50
2023-08-09T22:57:15.270Z,15.50
2023-08-09T22:59:42.085Z,15.50
2023-08-09T23:02:08.956Z,15.50
2023-08-09T23:04:36.003Z,15.50
2023-08-09T23:07:02.947Z,15.50
2023-08-09T23:09:30.543Z,15.50
2023-08-09T23:11:57.457Z,15.60
2023-08-09T23:14:24.351Z,15.60
2023-08-09T23:16:51.134Z,15.60
2023-08-09T23:19:17.914Z,15.60
2023-08-09T23:21:45.068Z,15.60
2023-08-09T23:24:11.920Z,15.60
2023-08-09T23:26:42.794Z,15.70
2023-08-09T23:29:09.842Z,15.70
2023-08-09T23:31:36.787Z,15.70
2023-08-09T23:34:03.872Z,15.70
2023-08-09T23:36:30.878Z,15.70
2023-08-09T23:38:59.029Z,15.70
2023-08-09T23:41:25.970Z,15.80
2023-08-09T23:43:52.763Z,15.80
2023-08-09T23:46:19.518Z,15.80
2023-08-09T23:48:46.390Z,15.80
2023-08-09T23:51:13.168Z,15.80
2023-08-09T23:53:40.895Z,15.80
2023-08-09T23:56:08.011Z,15.80
2023-08-09T23:58:34.901Z,15.80
